createdAt,value
2018-05-08T00:01:37.756Z,17.60
2018-05-08T00:04:04.681Z,17.70
2018-05-08T00:06:31.549Z,17.70
2018-05-08T00:08:58.505Z,17.70
2018-05-08T00:11:25.436Z,17.60
2018-05-08T00:13:52.316Z,17.60
2018-05-08T00:16:19.227Z,17.40
2018-05-08T00:18:46.078Z,17.30
2018-05-08T00:21:13.073Z,17.30
2018-05-08T00:23:39.921Z,17.20
2018-05-08T00:26:06.785Z,17.10
2018-05-08T00:28:33.732Z,17.10
2018-05-08T00:31:00.583Z,17.10
2018-05-08T00:33:27.433Z,17.10
2018-05-08T00:35:54.360Z,17.10
2018-05-08T00:38:21.203Z,16.90
2018-05-08T00:40:48.056Z,16.90
2018-05-08T00:43:14.980Z,16.80
2018-05-08T00:45:41.902Z,16.70
2018-05-08T00:48:08.770Z,16.70
2018-05-08T00:50:35.720Z,16.60
2018-05-08T00:53:02.576Z,16.60
2018-05-08T00:55:29.424Z,16.60
2018-05-08T00:57:56.425Z,16.60
2018-05-08T01:00:23.302Z,16.50
2018-05-08T01:02:50.242Z,16.50
2018-05-08T01:05:17.169Z,16.40
2018-05-08T01:07:44.024Z,16.40
2018-05-08T01:10:11.702Z,16.40
2018-05-08T01:12:39.143Z,16.40
2018-05-08T01:15:06.082Z,16.40
2018-05-08T01:17:33.008Z,16.40
2018-05-08T01:19:59.871Z,16.50
2018-05-08T01:22:26.856Z,16.40
2018-05-08T01:24:53.702Z,16.40
2018-05-08T01:27:20.691Z,16.30
2018-05-08T01:29:47.581Z,16.30
2018-05-08T01:32:14.442Z,16.20
2018-05-08T01:34:41.380Z,16.20
2018-05-08T01:37:08.301Z,16.10
2018-05-08T01:39:35.245Z,16.10
2018-05-08T01:42:02.196Z,16.00
2018-05-08T01:44:29.149Z,16.00
2018-05-08T01:46:56.013Z,16.00
2018-05-08T01:49:22.880Z,16.00
2018-05-08T01:51:49.849Z,16.00
2018-05-08T01:54:16.753Z,16.10
2018-05-08T01:56:43.743Z,16.00
2018-05-08T01:59:10.678Z,16.10
2018-05-08T02:01:37.612Z,16.10
2018-05-08T02:04:04.486Z,16.10
2018-05-08T02:06:32.218Z,16.10
2018-05-08T02:08:59.143Z,16.10
2018-05-08T02:11:26.023Z,16.10
2018-05-08T02:13:52.948Z,16.10
2018-05-08T02:16:19.876Z,16.00
2018-05-08T02:18:46.796Z,16.00
2018-05-08T02:21:14.404Z,16.00
2018-05-08T02:23:41.361Z,16.00
2018-05-08T02:26:08.384Z,15.90
2018-05-08T02:28:35.225Z,16.00
2018-05-08T02:31:02.145Z,16.00
2018-05-08T02:33:29.806Z,15.90
2018-05-08T02:35:57.392Z,15.90
2018-05-08T02:38:24.309Z,15.80
2018-05-08T02:40:51.182Z,15.90
2018-05-08T02:43:18.106Z,15.80
2018-05-08T02:45:44.950Z,15.80
2018-05-08T02:48:12.653Z,15.80
2018-05-08T02:50:39.582Z,15.80
2018-05-08T02:53:06.440Z,15.90
2018-05-08T02:55:33.426Z,15.90
2018-05-08T02:58:00.289Z,15.90
2018-05-08T03:00:27.199Z,16.00
2018-05-08T03:02:54.057Z,16.00
2018-05-08T03:05:20.982Z,16.10
2018-05-08T03:07:47.978Z,16.10
2018-05-08T03:10:14.876Z,16.10
2018-05-08T03:12:41.811Z,16.10
2018-05-08T03:15:08.716Z,16.20
2018-05-08T03:17:35.642Z,16.10
2018-05-08T03:20:02.750Z,16.00
2018-05-08T03:22:29.684Z,16.10
2018-05-08T03:24:56.598Z,16.10
2018-05-08T03:27:23.539Z,16.00
2018-05-08T03:29:51.208Z,16.00
2018-05-08T03:32:18.145Z,16.00
2018-05-08T03:34:45.067Z,16.00
2018-05-08T03:37:12.013Z,16.00
2018-05-08T03:39:38.883Z,16.00
2018-05-08T03:42:05.819Z,16.00
2018-05-08T03:44:32.694Z,16.00
2018-05-08T03:46:59.665Z,16.00
2018-05-08T03:49:26.523Z,16.00
2018-05-08T03:51:53.462Z,16.00
2018-05-08T03:54:20.380Z,16.00
2018-05-08T03:56:47.308Z,16.00
2018-05-08T03:59:14.169Z,16.10
2018-05-08T04:01:53.324Z,16.10
2018-05-08T04:04:32.245Z,16.10
2018-05-08T04:07:11.404Z,16.10
2018-05-08T04:09:38.274Z,16.00
2018-05-08T04:12:05.214Z,16.00
2018-05-08T04:14:32.073Z,15.90
2018-05-08T04:16:59.001Z,15.90
2018-05-08T04:19:25.862Z,15.80
2018-05-08T04:21:52.797Z,15.70
2018-05-08T04:24:21.404Z,15.70
2018-05-08T04:26:55.687Z,15.80
2018-05-08T04:29:22.786Z,15.80
2018-05-08T04:31:49.645Z,15.90
2018-05-08T04:34:16.602Z,15.90
2018-05-08T04:36:53.023Z,16.00
2018-05-08T04:39:20.265Z,16.20
2018-05-08T04:41:47.812Z,17.10
2018-05-08T04:44:17.449Z,21.00
2018-05-08T04:46:44.854Z,21.00
2018-05-08T04:49:12.547Z,20.70
2018-05-08T04:51:39.525Z,21.60
2018-05-08T04:54:06.398Z,22.20
2018-05-08T04:56:33.357Z,25.30
2018-05-08T04:59:00.309Z,27.30
2018-05-08T05:01:27.178Z,28.70
2018-05-08T05:03:54.099Z,29.30
2018-05-08T05:06:20.963Z,29.90
2018-05-08T05:08:47.871Z,28.20
2018-05-08T05:11:14.732Z,26.10
2018-05-08T05:13:41.658Z,25.20
2018-05-08T05:16:08.668Z,26.30
2018-05-08T05:18:36.261Z,24.90
2018-05-08T05:21:03.122Z,24.90
2018-05-08T05:23:30.034Z,24.90
2018-05-08T05:25:56.882Z,24.00
2018-05-08T05:28:23.796Z,25.40
2018-05-08T05:30:50.711Z,24.20
2018-05-08T05:33:17.641Z,23.30
2018-05-08T05:35:44.484Z,23.30
2018-05-08T05:38:11.481Z,22.00
2018-05-08T05:40:39.087Z,20.50
2018-05-08T05:43:06.017Z,20.50
2018-05-08T05:45:32.886Z,19.90
2018-05-08T05:47:59.735Z,19.60
2018-05-08T05:50:26.687Z,19.30
2018-05-08T05:52:53.554Z,19.10
2018-05-08T05:55:20.487Z,19.10
2018-05-08T05:57:47.437Z,19.50
2018-05-08T06:00:14.306Z,19.40
2018-05-08T06:02:41.174Z,19.30
2018-05-08T06:05:08.183Z,19.30
2018-05-08T06:07:35.058Z,19.20
2018-05-08T06:10:02.760Z,18.90
2018-05-08T06:12:29.644Z,18.90
2018-05-08T06:14:56.579Z,18.80
2018-05-08T06:17:23.482Z,19.10
2018-05-08T06:19:50.354Z,19.20
2018-05-08T06:22:17.287Z,19.20
2018-05-08T06:24:44.164Z,19.10
2018-05-08T06:27:11.159Z,19.00
2018-05-08T06:29:38.021Z,19.10
2018-05-08T06:32:05.013Z,19.10
2018-05-08T06:34:31.871Z,19.20
2018-05-08T06:36:59.465Z,20.60
2018-05-08T06:39:26.405Z,20.60
2018-05-08T06:41:53.310Z,20.50
2018-05-08T06:44:20.319Z,19.60
2018-05-08T06:46:47.219Z,19.90
2018-05-08T06:49:14.810Z,20.40
2018-05-08T06:51:41.733Z,20.40
2018-05-08T06:54:08.626Z,19.80
2018-05-08T06:56:35.596Z,19.80
2018-05-08T06:59:02.488Z,19.80
2018-05-08T07:01:29.349Z,19.80
2018-05-08T07:03:56.325Z,19.50
2018-05-08T07:06:23.193Z,19.40
2018-05-08T07:08:50.874Z,19.80
2018-05-08T07:11:17.990Z,19.80
2018-05-08T07:13:44.940Z,19.90
2018-05-08T07:16:11.968Z,19.90
2018-05-08T07:18:38.823Z,20.10
2018-05-08T07:21:05.779Z,20.00
2018-05-08T07:23:32.731Z,20.10
2018-05-08T07:25:59.659Z,20.00
2018-05-08T07:28:26.870Z,20.20
2018-05-08T07:30:53.762Z,20.60
2018-05-08T07:33:20.889Z,21.60
2018-05-08T07:35:47.769Z,21.20
2018-05-08T07:38:14.699Z,23.10
2018-05-08T07:40:41.638Z,22.10
2018-05-08T07:43:09.296Z,21.80
2018-05-08T07:45:39.627Z,22.00
2018-05-08T07:48:06.733Z,21.90
2018-05-08T07:50:34.229Z,21.90
2018-05-08T07:53:01.097Z,21.60
2018-05-08T07:55:28.026Z,21.50
2018-05-08T07:57:54.902Z,21.20
2018-05-08T08:00:22.618Z,21.50
2018-05-08T08:02:49.556Z,21.40
2018-05-08T08:05:16.430Z,22.00
2018-05-08T08:07:43.367Z,23.10
2018-05-08T08:10:10.299Z,25.20
2018-05-08T08:12:37.163Z,28.20
2018-05-08T08:15:04.104Z,30.20
2018-05-08T08:17:31.014Z,32.20
2018-05-08T08:19:57.947Z,33.40
2018-05-08T08:22:24.809Z,35.50
2018-05-08T08:24:51.797Z,37.00
2018-05-08T08:27:18.654Z,37.40
2018-05-08T08:29:45.565Z,36.60
2018-05-08T08:32:12.497Z,37.20
2018-05-08T08:34:39.362Z,36.60
2018-05-08T08:37:06.307Z,36.50
2018-05-08T08:39:33.238Z,38.20
2018-05-08T08:42:00.179Z,37.30
2018-05-08T08:44:27.050Z,37.50
2018-05-08T08:46:53.909Z,37.60
2018-05-08T08:49:20.897Z,37.40
2018-05-08T08:51:47.753Z,37.70
2018-05-08T08:54:14.749Z,34.70
2018-05-08T08:56:41.605Z,35.00
2018-05-08T08:59:08.484Z,32.10
2018-05-08T09:01:35.846Z,31.50
2018-05-08T09:04:02.818Z,31.90
2018-05-08T09:06:29.754Z,30.80
2018-05-08T09:08:56.605Z,30.30
2018-05-08T09:11:23.523Z,30.50
2018-05-08T09:13:50.447Z,29.60
2018-05-08T09:16:17.379Z,29.20
2018-05-08T09:18:44.240Z,29.00
2018-05-08T09:21:11.894Z,29.40
2018-05-08T09:23:39.494Z,30.10
2018-05-08T09:26:06.416Z,30.10
2018-05-08T09:28:33.454Z,30.50
2018-05-08T09:31:01.065Z,30.20
2018-05-08T09:33:28.016Z,30.20
2018-05-08T09:35:54.933Z,29.00
2018-05-08T09:38:21.866Z,29.20
2018-05-08T09:40:48.715Z,29.40
2018-05-08T09:43:15.578Z,29.10
2018-05-08T09:45:42.529Z,29.00
2018-05-08T09:48:09.447Z,30.50
2018-05-08T09:50:36.305Z,31.20
2018-05-08T09:53:03.233Z,30.40
2018-05-08T09:55:30.895Z,29.20
2018-05-08T09:57:57.822Z,29.20
2018-05-08T10:00:25.646Z,29.60
2018-05-08T10:02:52.678Z,29.50
2018-05-08T10:05:19.539Z,28.90
2018-05-08T10:07:46.525Z,28.60
2018-05-08T10:10:13.389Z,28.90
2018-05-08T10:12:41.074Z,28.60
2018-05-08T10:15:07.959Z,28.60
2018-05-08T10:17:34.889Z,28.40
2018-05-08T10:20:01.840Z,27.70
2018-05-08T10:22:28.741Z,28.40
2018-05-08T10:24:55.686Z,28.00
2018-05-08T10:27:22.594Z,27.70
2018-05-08T10:29:49.581Z,28.70
2018-05-08T10:32:16.483Z,27.50
2018-05-08T10:34:43.418Z,27.80
2018-05-08T10:37:10.293Z,27.60
2018-05-08T10:39:38.033Z,28.20
2018-05-08T10:42:05.013Z,28.20
2018-05-08T10:44:31.990Z,28.00
2018-05-08T10:46:58.917Z,28.60
2018-05-08T10:49:25.777Z,29.20
2018-05-08T10:51:52.658Z,28.60
2018-05-08T10:54:19.655Z,28.80
2018-05-08T10:56:46.519Z,29.40
2018-05-08T10:59:13.463Z,29.90
2018-05-08T11:01:40.421Z,30.00
2018-05-08T11:04:08.064Z,29.40
2018-05-08T11:06:34.926Z,29.40
2018-05-08T11:09:01.867Z,28.60
2018-05-08T11:11:28.832Z,28.20
2018-05-08T11:13:55.694Z,27.90
2018-05-08T11:16:31.761Z,28.60
2018-05-08T11:19:00.068Z,28.90
2018-05-08T11:21:27.789Z,28.80
2018-05-08T11:23:54.666Z,28.80
2018-05-08T11:26:23.107Z,28.20
2018-05-08T11:28:50.299Z,28.10
2018-05-08T11:31:19.056Z,28.70
2018-05-08T11:33:45.997Z,28.60
2018-05-08T11:36:12.854Z,28.70
2018-05-08T11:38:39.786Z,28.60
2018-05-08T11:41:06.655Z,28.80
2018-05-08T11:43:33.583Z,28.50
2018-05-08T11:46:00.594Z,28.70
2018-05-08T11:48:27.543Z,28.50
2018-05-08T11:50:54.407Z,28.60
2018-05-08T11:53:21.432Z,28.70
2018-05-08T11:55:48.302Z,28.50
2018-05-08T11:58:15.168Z,28.70
2018-05-08T12:00:42.118Z,27.80
2018-05-08T12:03:08.970Z,28.30
2018-05-08T12:05:35.853Z,27.80
2018-05-08T12:08:02.811Z,28.40
2018-05-08T12:10:29.683Z,28.80
2018-05-08T12:12:56.618Z,28.50
2018-05-08T12:15:23.482Z,28.30
2018-05-08T12:17:50.457Z,28.20
2018-05-08T12:20:17.320Z,28.20
2018-05-08T12:22:44.258Z,28.50
2018-05-08T12:25:11.199Z,28.90
2018-05-08T12:27:38.815Z,28.00
2018-05-08T12:30:05.880Z,28.00
2018-05-08T12:32:32.942Z,27.80
2018-05-08T12:35:05.227Z,27.50
2018-05-08T12:37:35.365Z,27.90
2018-05-08T12:40:02.342Z,28.40
2018-05-08T12:42:29.319Z,27.90
2018-05-08T12:44:56.951Z,28.60
2018-05-08T12:47:26.208Z,28.60
2018-05-08T12:49:55.907Z,28.40
2018-05-08T12:52:30.592Z,28.50
2018-05-08T12:55:00.049Z,28.90
2018-05-08T12:57:28.748Z,28.70
2018-05-08T13:00:05.627Z,28.60
2018-05-08T13:02:39.182Z,28.60
2018-05-08T13:05:19.493Z,28.40
2018-05-08T13:07:53.587Z,28.10
2018-05-08T13:10:31.969Z,28.10
2018-05-08T13:13:12.692Z,27.70
2018-05-08T13:15:43.018Z,27.90
2018-05-08T13:18:13.979Z,28.10
2018-05-08T13:20:40.814Z,28.60
2018-05-08T13:23:07.775Z,28.60
2018-05-08T13:25:36.449Z,28.60
2018-05-08T13:28:05.202Z,28.60
2018-05-08T13:30:35.260Z,28.20
2018-05-08T13:33:02.611Z,28.20
2018-05-08T13:35:30.786Z,28.60
2018-05-08T13:37:57.742Z,28.40
2018-05-08T13:40:29.756Z,27.90
2018-05-08T13:45:55.794Z,27.90
2018-05-08T13:48:29.238Z,27.80
2018-05-08T13:50:56.854Z,27.90
2018-05-08T13:53:34.744Z,28.10
2018-05-08T13:56:07.608Z,27.70
2018-05-08T13:58:43.797Z,28.00
2018-05-08T14:01:17.605Z,27.40
2018-05-08T14:03:53.114Z,27.90
2018-05-08T14:09:17.006Z,28.20
2018-05-08T14:11:50.943Z,28.10
2018-05-08T14:14:20.999Z,28.00
2018-05-08T14:16:49.643Z,28.10
2018-05-08T14:19:18.567Z,27.90
2018-05-08T14:21:51.468Z,28.20
2018-05-08T14:24:19.024Z,28.20
2018-05-08T14:26:47.686Z,27.60
2018-05-08T14:29:15.405Z,27.60
2018-05-08T14:31:51.992Z,28.10
2018-05-08T14:34:22.012Z,27.90
2018-05-08T14:36:49.635Z,28.00
2018-05-08T14:39:17.297Z,28.10
2018-05-08T14:41:44.963Z,28.00
2018-05-08T14:44:12.494Z,28.00
2018-05-08T14:46:45.668Z,28.30
2018-05-08T14:49:13.641Z,28.40
2018-05-08T14:51:40.648Z,28.40
2018-05-08T14:54:08.586Z,28.40
2018-05-08T14:56:36.199Z,28.00
2018-05-08T14:59:03.150Z,28.00
2018-05-08T15:01:30.474Z,27.90
2018-05-08T15:03:57.418Z,27.40
2018-05-08T15:06:24.349Z,27.60
2018-05-08T15:08:52.363Z,27.80
2018-05-08T15:11:19.794Z,27.80
2018-05-08T15:13:46.730Z,27.90
2018-05-08T15:16:15.178Z,27.70
2018-05-08T15:18:42.050Z,27.70
2018-05-08T15:21:09.856Z,26.80
2018-05-08T15:23:40.452Z,26.80
2018-05-08T15:26:19.470Z,27.20
2018-05-08T15:28:47.335Z,27.10
2018-05-08T15:31:16.680Z,27.40
2018-05-08T15:33:48.110Z,27.40
2018-05-08T15:36:17.573Z,27.50
2018-05-08T15:38:45.865Z,27.50
2018-05-08T15:41:13.568Z,27.40
2018-05-08T15:43:43.084Z,27.60
2018-05-08T15:46:10.013Z,27.30
2018-05-08T15:48:38.716Z,27.30
2018-05-08T15:51:05.959Z,27.60
2018-05-08T15:53:37.539Z,27.70
2018-05-08T15:56:05.975Z,27.60
2018-05-08T15:58:33.881Z,27.60
2018-05-08T16:01:00.742Z,27.60
2018-05-08T16:03:27.640Z,27.40
2018-05-08T16:05:54.921Z,27.50
2018-05-08T16:08:24.704Z,27.50
2018-05-08T16:10:52.186Z,27.50
2018-05-08T16:13:20.286Z,27.40
2018-05-08T16:15:48.003Z,27.10
2018-05-08T16:18:15.677Z,26.90
2018-05-08T16:20:42.614Z,26.90
2018-05-08T16:23:10.208Z,27.10
2018-05-08T16:25:37.197Z,27.10
2018-05-08T16:28:06.208Z,27.20
2018-05-08T16:30:39.531Z,27.20
2018-05-08T16:33:14.966Z,27.20
2018-05-08T16:35:44.615Z,27.30
2018-05-08T16:38:11.526Z,27.00
2018-05-08T16:40:38.475Z,27.20
2018-05-08T16:43:05.347Z,27.20
2018-05-08T16:45:32.215Z,27.20
2018-05-08T16:47:59.193Z,27.10
2018-05-08T16:50:26.062Z,27.00
2018-05-08T16:52:53.672Z,26.90
2018-05-08T16:55:22.123Z,27.00
2018-05-08T16:57:49.075Z,26.90
2018-05-08T17:00:16.007Z,26.90
2018-05-08T17:02:47.051Z,26.90
2018-05-08T17:05:14.303Z,27.00
2018-05-08T17:07:41.163Z,27.00
2018-05-08T17:10:08.087Z,27.00
2018-05-08T17:12:34.949Z,27.00
2018-05-08T17:15:01.875Z,27.00
2018-05-08T17:17:28.801Z,26.80
2018-05-08T17:19:55.705Z,26.80
2018-05-08T17:22:22.619Z,26.70
2018-05-08T17:24:49.569Z,26.60
2018-05-08T17:27:16.422Z,26.50
2018-05-08T17:29:43.273Z,26.30
2018-05-08T17:32:10.266Z,26.20
2018-05-08T17:34:37.205Z,26.30
2018-05-08T17:37:04.901Z,26.10
2018-05-08T17:39:31.765Z,26.10
2018-05-08T17:41:58.721Z,26.00
2018-05-08T17:44:29.448Z,25.80
2018-05-08T17:46:56.384Z,25.90
2018-05-08T17:49:23.309Z,25.80
2018-05-08T17:51:50.268Z,25.90
2018-05-08T17:54:17.692Z,26.00
2018-05-08T17:56:44.693Z,26.00
2018-05-08T17:59:11.611Z,26.00
2018-05-08T18:01:38.542Z,26.00
2018-05-08T18:04:06.240Z,25.70
2018-05-08T18:06:33.227Z,25.70
2018-05-08T18:09:00.083Z,25.80
2018-05-08T18:11:27.733Z,25.70
2018-05-08T18:13:54.646Z,25.60
2018-05-08T18:16:21.519Z,25.60
2018-05-08T18:18:48.451Z,25.40
2018-05-08T18:21:15.307Z,25.40
2018-05-08T18:23:42.244Z,25.40
2018-05-08T18:26:20.274Z,25.30
2018-05-08T18:28:48.314Z,25.20
2018-05-08T18:31:15.296Z,25.10
2018-05-08T18:33:43.030Z,25.00
2018-05-08T18:36:09.885Z,25.00
2018-05-08T18:38:36.804Z,24.90
2018-05-08T18:41:03.871Z,24.80
2018-05-08T18:43:30.912Z,24.70
2018-05-08T18:46:00.651Z,24.60
2018-05-08T18:48:27.578Z,24.50
2018-05-08T18:50:54.429Z,24.40
2018-05-08T18:53:37.436Z,24.30
2018-05-08T18:56:14.585Z,24.20
2018-05-08T18:58:42.347Z,24.00
2018-05-08T19:01:09.226Z,23.90
2018-05-08T19:03:36.148Z,23.80
2018-05-08T19:06:03.073Z,23.60
2018-05-08T19:08:30.008Z,23.60
2018-05-08T19:11:03.814Z,23.30
2018-05-08T19:13:40.459Z,23.30
2018-05-08T19:16:21.183Z,23.30
2018-05-08T19:19:05.236Z,23.20
2018-05-08T19:21:45.696Z,23.00
2018-05-08T19:24:29.887Z,22.80
2018-05-08T19:27:10.570Z,22.50
2018-05-08T19:29:44.413Z,22.40
2018-05-08T19:32:11.327Z,22.40
2018-05-08T19:34:44.350Z,22.20
2018-05-08T19:37:17.335Z,22.20
2018-05-08T19:39:44.290Z,22.10
2018-05-08T19:42:11.150Z,22.00
2018-05-08T19:44:38.074Z,22.00
2018-05-08T19:47:04.926Z,22.00
2018-05-08T19:49:31.935Z,21.90
2018-05-08T19:51:59.539Z,21.80
2018-05-08T19:54:26.407Z,21.80
2018-05-08T19:56:53.338Z,21.80
2018-05-08T19:59:20.213Z,21.70
2018-05-08T20:01:47.082Z,21.70
2018-05-08T20:04:14.755Z,21.70
2018-05-08T20:06:42.386Z,21.60
2018-05-08T20:09:09.320Z,21.60
2018-05-08T20:11:36.177Z,21.60
2018-05-08T20:14:03.143Z,21.50
2018-05-08T20:16:30.822Z,21.40
2018-05-08T20:18:57.690Z,21.40
2018-05-08T20:21:24.623Z,21.30
2018-05-08T20:23:51.518Z,21.20
2018-05-08T20:26:18.515Z,21.10
2018-05-08T20:28:45.398Z,21.10
2018-05-08T20:31:12.317Z,21.10
2018-05-08T20:33:39.187Z,21.10
2018-05-08T20:36:06.130Z,21.10
2018-05-08T20:38:33.065Z,21.00
2018-05-08T20:40:59.962Z,21.10
2018-05-08T20:43:27.617Z,21.00
2018-05-08T20:45:54.547Z,21.00
2018-05-08T20:48:21.498Z,21.00
2018-05-08T20:50:48.425Z,21.00
2018-05-08T20:53:15.280Z,21.00
2018-05-08T20:55:42.218Z,21.00
2018-05-08T20:58:09.071Z,21.00
2018-05-08T21:00:35.986Z,21.00
2018-05-08T21:03:02.969Z,21.00
2018-05-08T21:05:29.892Z,20.90
2018-05-08T21:07:56.898Z,20.90
2018-05-08T21:10:23.762Z,20.80
2018-05-08T21:12:50.673Z,20.80
2018-05-08T21:15:18.339Z,20.80
2018-05-08T21:17:46.658Z,20.80
2018-05-08T21:20:13.597Z,20.90
2018-05-08T21:22:40.530Z,20.80
2018-05-08T21:25:07.481Z,20.80
2018-05-08T21:27:40.430Z,20.70
2018-05-08T21:30:14.160Z,20.50
2018-05-08T21:32:41.078Z,20.50
2018-05-08T21:35:08.002Z,20.50
2018-05-08T21:37:34.942Z,20.40
2018-05-08T21:40:03.602Z,20.30
2018-05-08T21:42:30.453Z,20.20
2018-05-08T21:44:57.317Z,20.20
2018-05-08T21:47:24.250Z,20.10
2018-05-08T21:49:51.111Z,20.00
2018-05-08T21:52:18.044Z,20.10
2018-05-08T21:54:44.926Z,20.00
2018-05-08T21:57:11.857Z,20.00
2018-05-08T21:59:38.714Z,20.00
2018-05-08T22:02:05.598Z,20.00
2018-05-08T22:04:32.538Z,19.90
2018-05-08T22:06:59.450Z,19.90
2018-05-08T22:09:26.332Z,19.70
2018-05-08T22:11:53.253Z,19.40
2018-05-08T22:14:20.915Z,19.50
2018-05-08T22:16:48.578Z,19.50
2018-05-08T22:19:16.252Z,19.50
2018-05-08T22:21:43.913Z,19.50
2018-05-08T22:24:10.838Z,19.50
2018-05-08T22:26:37.719Z,19.50
2018-05-08T22:29:04.645Z,19.40
2018-05-08T22:31:32.333Z,19.30
2018-05-08T22:33:59.266Z,19.20
2018-05-08T22:36:26.171Z,19.10
2018-05-08T22:38:53.135Z,19.00
2018-05-08T22:41:20.854Z,18.80
2018-05-08T22:43:47.786Z,18.80
2018-05-08T22:46:14.652Z,18.80
2018-05-08T22:48:41.579Z,18.70
2018-05-08T22:51:08.544Z,18.70
2018-05-08T22:53:35.460Z,18.70
2018-05-08T22:56:02.383Z,18.60
2018-05-08T22:58:30.101Z,18.50
2018-05-08T23:00:57.042Z,18.50
2018-05-08T23:03:23.906Z,18.40
2018-05-08T23:05:50.845Z,18.40
2018-05-08T23:08:17.726Z,18.20
2018-05-08T23:10:45.393Z,18.20
2018-05-08T23:13:13.062Z,18.10
2018-05-08T23:15:40.758Z,18.10
2018-05-08T23:18:07.639Z,18.10
2018-05-08T23:20:34.575Z,18.10
2018-05-08T23:23:01.502Z,18.00
2018-05-08T23:25:28.431Z,18.00
2018-05-08T23:27:55.351Z,18.00
2018-05-08T23:30:22.943Z,17.80
2018-05-08T23:32:49.940Z,17.80
2018-05-08T23:35:16.989Z,17.70
2018-05-08T23:37:43.981Z,17.60
2018-05-08T23:40:10.841Z,17.50
2018-05-08T23:42:37.696Z,17.50
2018-05-08T23:45:04.683Z,17.40
2018-05-08T23:47:31.557Z,17.30
2018-05-08T23:49:58.466Z,17.30
2018-05-08T23:52:25.355Z,17.20
2018-05-08T23:54:52.302Z,17.10
2018-05-08T23:57:19.166Z,17.00
2018-05-08T23:59:46.026Z,17.00
